Time;durP1;ratioP1;P1;durP2;ratioP2;P2;SDS_P1;SDS_P2;PMS_P1;PMS_P2;Temp;Humidity;BMP_temperature;BMP_pressure;BME280_temperature;BME280_humidity;BME280_pressure;Samples;Min_cycle;Max_cycle;Signal;HPM_P1;HPM_P2
2022/03/23 00:00:26;;;;;;;;;;;23.30;99.90;;;;;;5053937;28;20011;-70
2022/03/23 00:02:53;;;;;;;;;;;23.20;99.90;;;;;;5054047;28;20023;-70
2022/03/23 00:05:19;;;;;;;;;;;23.10;99.90;;;;;;5054043;28;20343;-70
2022/03/23 00:07:46;;;;;;;;;;;23.00;99.90;;;;;;5053962;28;20386;-70
2022/03/23 00:10:13;;;;;;;;;;;23.00;99.90;;;;;;5053667;28;20022;-70
2022/03/23 00:12:42;;;;;;;;;;;23.00;99.90;;;;;;5053716;28;19995;-70
2022/03/23 00:15:09;;;;;;;;;;;23.20;99.90;;;;;;5053787;28;20278;-70
2022/03/23 00:17:35;;;;;;;;;;;23.40;99.90;;;;;;5053714;28;20330;-70
2022/03/23 00:20:04;;;;;;;;;;;23.40;99.90;;;;;;5053705;28;19934;-70
2022/03/23 00:22:30;;;;;;;;;;;23.30;99.90;;;;;;5053608;28;19912;-70
2022/03/23 00:24:57;;;;;;;;;;;23.20;99.90;;;;;;5053518;28;19939;-70
2022/03/23 00:27:24;;;;;;;;;;;23.00;99.90;;;;;;5053492;28;19948;-70
2022/03/23 00:29:51;;;;;;;;;;;23.00;99.90;;;;;;5053559;28;19909;-69
2022/03/23 00:32:17;;;;;;;;;;;22.90;99.90;;;;;;5053501;28;19919;-70
2022/03/23 00:34:44;;;;;;;;;;;22.80;99.90;;;;;;5053774;28;20355;-70
2022/03/23 00:37:11;;;;;;;;;;;22.80;99.90;;;;;;5053143;28;19912;-70
2022/03/23 00:39:38;;;;;;;;;;;22.80;99.90;;;;;;5053327;28;19940;-70
2022/03/23 00:42:05;;;;;;;;;;;22.80;99.90;;;;;;5052900;28;19955;-70
2022/03/23 00:44:31;;;;;;;;;;;22.70;99.90;;;;;;5053277;28;19932;-69
2022/03/23 00:46:58;;;;;;;;;;;22.80;99.90;;;;;;5053361;28;19916;-68
2022/03/23 00:49:25;;;;;;;;;;;22.80;99.90;;;;;;5053467;28;19969;-69
2022/03/23 00:51:53;;;;;;;;;;;22.80;99.90;;;;;;5053295;28;19916;-70
2022/03/23 00:54:23;;;;;;;;;;;22.80;99.90;;;;;;5053074;28;19909;-69
2022/03/23 00:56:51;;;;;;;;;;;22.90;99.90;;;;;;5053206;28;19913;-69
2022/03/23 00:59:19;;;;;;;;;;;22.90;99.90;;;;;;5053347;28;19912;-68
2022/03/23 01:01:46;;;;;;;;;;;22.90;99.90;;;;;;5053275;28;20023;-68
2022/03/23 01:04:13;;;;;;;;;;;22.90;99.90;;;;;;5053043;28;19920;-70
2022/03/23 01:06:39;;;;;;;;;;;22.90;99.90;;;;;;5052955;28;19912;-70
2022/03/23 01:09:06;;;;;;;;;;;22.90;99.90;;;;;;5053085;28;19915;-69
2022/03/23 01:11:33;;;;;;;;;;;22.90;99.90;;;;;;5052797;28;19908;-69
2022/03/23 01:13:59;;;;;;;;;;;23.00;99.90;;;;;;5053195;28;19912;-70
2022/03/23 01:16:26;;;;;;;;;;;23.10;99.90;;;;;;5052749;28;19912;-70
2022/03/23 01:18:53;;;;;;;;;;;23.10;99.90;;;;;;5053119;28;19956;-69
2022/03/23 01:21:20;;;;;;;;;;;23.00;99.90;;;;;;5053113;28;19909;-69
2022/03/23 01:23:47;;;;;;;;;;;23.10;99.90;;;;;;5053147;28;19920;-69
2022/03/23 01:26:14;;;;;;;;;;;23.00;99.90;;;;;;5052291;28;19956;-69
2022/03/23 01:28:40;;;;;;;;;;;23.10;99.90;;;;;;5052867;28;19909;-69
2022/03/23 01:31:08;;;;;;;;;;;23.00;99.90;;;;;;5052878;28;19912;-69
2022/03/23 01:33:35;;;;;;;;;;;23.00;99.90;;;;;;5053049;28;19909;-69
2022/03/23 01:36:02;;;;;;;;;;;22.90;99.90;;;;;;5052949;28;19908;-68
2022/03/23 01:38:29;;;;;;;;;;;23.00;99.90;;;;;;5052710;28;19998;-69
2022/03/23 01:40:56;;;;;;;;;;;23.00;99.90;;;;;;5052657;28;19909;-69
2022/03/23 01:43:22;;;;;;;;;;;23.10;99.90;;;;;;5052821;28;19932;-69
2022/03/23 01:45:49;;;;;;;;;;;23.30;99.90;;;;;;5052623;28;19948;-69
2022/03/23 01:48:16;;;;;;;;;;;23.30;99.90;;;;;;5052159;28;19909;-70
2022/03/23 01:50:42;;;;;;;;;;;23.20;99.90;;;;;;5037115;28;20398;-70
2022/03/23 01:53:09;;;;;;;;;;;23.10;99.90;;;;;;5056663;28;19936;-68
2022/03/23 01:55:36;;;;;;;;;;;23.00;99.90;;;;;;5056514;28;19915;-69
2022/03/23 01:58:02;;;;;;;;;;;22.90;99.90;;;;;;5056225;28;19923;-68
2022/03/23 02:00:29;;;;;;;;;;;23.00;99.90;;;;;;5056428;28;19952;-69
2022/03/23 02:02:57;;;;;;;;;;;23.00;99.90;;;;;;5056212;28;19967;-69
2022/03/23 02:05:24;;;;;;;;;;;22.90;99.90;;;;;;5056283;28;19909;-69
2022/03/23 02:07:51;;;;;;;;;;;22.80;99.90;;;;;;5056114;28;20035;-69
2022/03/23 02:10:18;;;;;;;;;;;22.90;99.90;;;;;;5055967;28;19963;-69
2022/03/23 02:12:44;;;;;;;;;;;22.90;99.90;;;;;;5056146;28;19923;-69
2022/03/23 02:15:16;;;;;;;;;;;22.90;99.90;;;;;;5056178;28;20375;-69
2022/03/23 02:17:43;;;;;;;;;;;22.80;99.90;;;;;;5055591;28;20011;-69
2022/03/23 02:20:10;;;;;;;;;;;22.90;99.90;;;;;;5055845;28;19916;-69
2022/03/23 02:22:37;;;;;;;;;;;23.00;99.90;;;;;;5055538;28;19917;-69
2022/03/23 02:25:04;;;;;;;;;;;22.90;99.90;;;;;;5055777;28;20000;-69
2022/03/23 02:27:32;;;;;;;;;;;23.00;99.90;;;;;;5055797;28;19998;-69
2022/03/23 02:29:59;;;;;;;;;;;23.00;99.90;;;;;;5055840;28;19916;-69
2022/03/23 02:32:25;;;;;;;;;;;23.10;99.90;;;;;;5055500;28;19931;-69
2022/03/23 02:34:52;;;;;;;;;;;23.00;99.90;;;;;;5055781;28;19916;-69
2022/03/23 02:37:19;;;;;;;;;;;23.10;99.90;;;;;;5055639;28;20000;-69
2022/03/23 02:39:46;;;;;;;;;;;23.00;99.90;;;;;;5055628;28;19909;-69
2022/03/23 02:42:12;;;;;;;;;;;22.70;99.90;;;;;;5055060;28;19913;-69
2022/03/23 02:44:39;;;;;;;;;;;22.70;99.90;;;;;;5058976;28;19931;-69
2022/03/23 02:47:06;;;;;;;;;;;22.60;99.90;;;;;;5056495;28;19963;-69
2022/03/23 02:49:33;;;;;;;;;;;22.60;99.90;;;;;;5054696;28;19955;-69
2022/03/23 02:51:59;;;;;;;;;;;22.50;99.90;;;;;;5055339;28;19909;-69
2022/03/23 03:02:58;;;;;;;;;;;22.50;99.90;;;;;;5075239;28;19923;-70
2022/03/23 03:05:24;;;;;;;;;;;22.50;99.90;;;;;;5075432;28;19951;-70
2022/03/23 03:10:36;;;;;;;;;;;22.30;99.90;;;;;;5075515;28;19923;-70
2022/03/23 03:13:03;;;;;;;;;;;22.30;99.90;;;;;;5075311;28;19908;-70
2022/03/23 03:15:29;;;;;;;;;;;22.20;99.90;;;;;;5075169;28;19916;-70
2022/03/23 03:20:31;;;;;;;;;;;22.30;99.90;;;;;;5087187;22;19932;-70
2022/03/23 03:22:58;;;;;;;;;;;22.30;99.90;;;;;;5054991;28;20274;-72
2022/03/23 03:25:25;;;;;;;;;;;22.40;99.90;;;;;;5054967;28;20347;-72
2022/03/23 03:27:51;;;;;;;;;;;22.50;99.90;;;;;;5055035;28;19955;-72
2022/03/23 03:30:19;;;;;;;;;;;22.50;99.90;;;;;;5054786;28;19908;-72
2022/03/23 03:32:46;;;;;;;;;;;22.50;99.90;;;;;;5054814;28;20321;-72
2022/03/23 03:35:14;;;;;;;;;;;22.40;99.90;;;;;;5054767;28;19999;-71
2022/03/23 03:37:41;;;;;;;;;;;22.50;99.90;;;;;;5054581;28;19909;-71
2022/03/23 03:40:08;;;;;;;;;;;22.40;99.90;;;;;;5054510;28;20003;-70
2022/03/23 03:42:36;;;;;;;;;;;22.40;99.90;;;;;;5054546;28;20358;-71
2022/03/23 03:45:05;;;;;;;;;;;22.50;99.90;;;;;;5054483;28;20003;-70
2022/03/23 03:47:31;;;;;;;;;;;22.50;99.90;;;;;;5054557;28;20251;-72
2022/03/23 03:49:58;;;;;;;;;;;22.50;99.90;;;;;;5054114;28;19909;-72
2022/03/23 03:52:25;;;;;;;;;;;22.50;99.90;;;;;;5054264;28;19908;-71
2022/03/23 03:54:51;;;;;;;;;;;22.50;99.90;;;;;;5054443;28;19920;-72
2022/03/23 03:57:18;;;;;;;;;;;22.50;99.90;;;;;;5054203;28;19909;-71
2022/03/23 03:59:45;;;;;;;;;;;22.60;99.90;;;;;;5054195;28;20389;-72
2022/03/23 04:02:11;;;;;;;;;;;22.50;99.90;;;;;;5053933;28;19913;-72
2022/03/23 04:04:38;;;;;;;;;;;22.60;99.90;;;;;;5054016;28;19916;-72
2022/03/23 04:07:05;;;;;;;;;;;22.60;99.90;;;;;;5053954;28;19915;-72
2022/03/23 04:09:31;;;;;;;;;;;22.60;99.90;;;;;;5053844;28;20404;-72
2022/03/23 04:11:58;;;;;;;;;;;22.60;99.90;;;;;;5053415;28;20355;-71
2022/03/23 04:14:25;;;;;;;;;;;22.50;99.90;;;;;;5055569;28;20369;-71
2022/03/23 04:16:51;;;;;;;;;;;22.50;99.90;;;;;;5054073;28;19959;-71
2022/03/23 04:19:18;;;;;;;;;;;22.50;99.90;;;;;;5044147;28;19928;-72
2022/03/23 04:21:45;;;;;;;;;;;22.60;99.90;;;;;;5033936;28;20362;-70
2022/03/23 04:24:12;;;;;;;;;;;22.70;99.90;;;;;;5033518;28;19917;-70
2022/03/23 04:26:38;;;;;;;;;;;22.70;99.90;;;;;;5033857;28;19948;-71
2022/03/23 04:29:06;;;;;;;;;;;22.60;99.90;;;;;;5033961;28;19909;-71
2022/03/23 04:31:33;;;;;;;;;;;22.60;99.90;;;;;;5033826;28;19910;-71
2022/03/23 04:33:59;;;;;;;;;;;22.60;99.90;;;;;;5033700;28;20353;-71
2022/03/23 04:36:26;;;;;;;;;;;22.60;99.90;;;;;;5033600;28;19909;-71
2022/03/23 04:38:53;;;;;;;;;;;22.60;99.90;;;;;;5033750;28;19909;-70
2022/03/23 04:41:19;;;;;;;;;;;22.60;99.90;;;;;;5033669;28;19909;-70
2022/03/23 04:43:46;;;;;;;;;;;22.50;99.90;;;;;;5033324;28;20004;-70
2022/03/23 04:46:13;;;;;;;;;;;22.60;99.90;;;;;;5033353;28;20329;-71
2022/03/23 04:48:40;;;;;;;;;;;22.50;99.90;;;;;;5033180;28;20316;-71
2022/03/23 04:51:07;;;;;;;;;;;22.60;99.90;;;;;;5033572;28;19913;-71
2022/03/23 04:53:33;;;;;;;;;;;22.60;99.90;;;;;;5033504;28;20371;-70
2022/03/23 04:56:00;;;;;;;;;;;22.60;99.90;;;;;;5033258;28;19916;-70
2022/03/23 04:58:27;;;;;;;;;;;22.80;99.90;;;;;;5033204;28;20328;-70
2022/03/23 05:00:54;;;;;;;;;;;22.70;99.90;;;;;;5033415;28;19910;-70
2022/03/23 05:03:20;;;;;;;;;;;22.80;99.90;;;;;;5032963;28;20015;-69
2022/03/23 05:05:47;;;;;;;;;;;22.70;99.90;;;;;;5033398;28;19916;-69
2022/03/23 05:08:14;;;;;;;;;;;22.70;99.90;;;;;;5033079;28;20011;-70
2022/03/23 05:10:40;;;;;;;;;;;22.60;99.90;;;;;;5033406;28;19920;-71
2022/03/23 05:13:07;;;;;;;;;;;22.60;99.90;;;;;;5033915;28;19910;-71
2022/03/23 05:15:34;;;;;;;;;;;22.60;99.90;;;;;;5033345;28;19959;-71
2022/03/23 05:18:01;;;;;;;;;;;22.60;99.90;;;;;;5032977;28;19913;-71
2022/03/23 05:20:28;;;;;;;;;;;22.50;99.90;;;;;;5032885;28;19998;-70
2022/03/23 05:22:54;;;;;;;;;;;22.50;99.90;;;;;;5033202;28;19913;-70
2022/03/23 05:25:21;;;;;;;;;;;22.50;99.90;;;;;;5036507;28;20401;-70
2022/03/23 05:27:48;;;;;;;;;;;22.40;99.90;;;;;;5037152;28;19944;-71
2022/03/23 05:30:15;;;;;;;;;;;22.40;99.90;;;;;;5035796;28;19909;-70
2022/03/23 05:32:42;;;;;;;;;;;22.40;99.90;;;;;;5037098;28;19909;-71
2022/03/23 05:35:09;;;;;;;;;;;22.30;99.90;;;;;;5037159;28;19959;-71
2022/03/23 05:37:35;;;;;;;;;;;22.30;99.90;;;;;;5037107;28;20388;-71
2022/03/23 05:40:03;;;;;;;;;;;22.20;99.90;;;;;;5036988;28;20284;-70
2022/03/23 05:42:30;;;;;;;;;;;22.20;99.90;;;;;;5036854;28;19967;-70
2022/03/23 05:45:00;;;;;;;;;;;22.20;99.90;;;;;;5036940;28;19949;-70
2022/03/23 05:47:26;;;;;;;;;;;22.20;99.90;;;;;;5036769;28;20256;-71
2022/03/23 05:49:53;;;;;;;;;;;22.30;99.90;;;;;;5036712;28;20011;-70
2022/03/23 05:52:20;;;;;;;;;;;22.30;99.90;;;;;;5034248;28;20394;-71
2022/03/23 05:54:46;;;;;;;;;;;22.30;99.90;;;;;;5034662;28;19913;-71
2022/03/23 05:57:13;;;;;;;;;;;22.30;99.90;;;;;;5034591;28;19909;-70
2022/03/23 05:59:40;;;;;;;;;;;22.30;99.90;;;;;;5034477;28;19909;-71
2022/03/23 06:02:06;;;;;;;;;;;22.20;99.90;;;;;;5034367;28;19909;-70
2022/03/23 06:04:33;;;;;;;;;;;22.10;99.90;;;;;;5033742;28;19924;-71
2022/03/23 06:06:59;;;;;;;;;;;22.10;99.90;;;;;;5034414;28;20020;-71
2022/03/23 06:09:26;;;;;;;;;;;22.10;99.90;;;;;;5034377;28;19959;-71
2022/03/23 06:11:53;;;;;;;;;;;22.10;99.90;;;;;;5034357;28;20309;-71
2022/03/23 06:14:19;;;;;;;;;;;22.10;99.90;;;;;;5033949;28;20268;-71
2022/03/23 06:16:46;;;;;;;;;;;22.10;99.90;;;;;;5034119;28;20294;-71
2022/03/23 06:19:13;;;;;;;;;;;22.20;99.90;;;;;;5033532;28;19921;-71
2022/03/23 06:21:40;;;;;;;;;;;22.10;99.90;;;;;;5034221;28;20048;-71
2022/03/23 06:24:07;;;;;;;;;;;22.10;99.90;;;;;;5034267;28;20309;-70
2022/03/23 06:26:34;;;;;;;;;;;22.10;99.90;;;;;;5033873;28;19932;-71
2022/03/23 06:29:00;;;;;;;;;;;22.00;99.90;;;;;;5034046;28;19916;-71
2022/03/23 06:31:27;;;;;;;;;;;22.00;99.90;;;;;;5033657;28;19909;-71
2022/03/23 06:33:54;;;;;;;;;;;22.10;99.90;;;;;;5033965;28;19914;-71
2022/03/23 06:36:20;;;;;;;;;;;22.00;99.90;;;;;;5032672;28;20264;-71
2022/03/23 06:38:48;;;;;;;;;;;21.90;99.90;;;;;;5033677;28;19913;-71
2022/03/23 06:41:15;;;;;;;;;;;21.80;99.90;;;;;;5033715;28;20409;-71
2022/03/23 06:43:42;;;;;;;;;;;21.60;99.90;;;;;;5033409;28;19925;-71
2022/03/23 06:46:08;;;;;;;;;;;21.50;99.90;;;;;;5033705;28;20000;-71
2022/03/23 06:48:36;;;;;;;;;;;21.30;99.90;;;;;;5033564;28;19909;-71
2022/03/23 06:51:03;;;;;;;;;;;21.20;99.90;;;;;;5033637;28;19913;-71
2022/03/23 06:53:30;;;;;;;;;;;21.20;99.90;;;;;;5033349;28;19913;-71
2022/03/23 06:55:57;;;;;;;;;;;21.20;99.90;;;;;;5033563;28;19919;-71
2022/03/23 06:58:23;;;;;;;;;;;21.30;99.90;;;;;;5032674;28;20035;-71
2022/03/23 07:00:50;;;;;;;;;;;21.30;99.90;;;;;;5033338;28;20349;-71
2022/03/23 07:03:17;;;;;;;;;;;21.40;99.90;;;;;;5033170;28;20026;-71
2022/03/23 07:05:43;;;;;;;;;;;21.40;99.90;;;;;;5033603;28;20004;-71
2022/03/23 07:10:55;;;;;;;;;;;21.50;99.90;;;;;;5033006;28;19917;-72
2022/03/23 07:13:21;;;;;;;;;;;21.50;99.90;;;;;;5033230;28;19917;-72
2022/03/23 07:15:48;;;;;;;;;;;21.60;99.90;;;;;;5033000;28;19932;-72
2022/03/23 07:18:15;;;;;;;;;;;21.70;99.90;;;;;;5021084;28;19925;-72
2022/03/23 07:20:41;;;;;;;;;;;21.60;99.90;;;;;;5013734;28;20016;-72
2022/03/23 07:23:08;;;;;;;;;;;21.60;99.90;;;;;;5013330;28;19921;-71
2022/03/23 07:25:35;;;;;;;;;;;21.50;99.90;;;;;;5013074;28;20295;-72
2022/03/23 07:28:02;;;;;;;;;;;21.40;99.90;;;;;;5012935;28;19913;-71
2022/03/23 07:30:30;;;;;;;;;;;21.30;99.90;;;;;;5012450;28;19917;-72
2022/03/23 07:32:57;;;;;;;;;;;21.20;99.90;;;;;;5012037;28;19935;-71
2022/03/23 07:35:23;;;;;;;;;;;21.20;99.90;;;;;;5012688;28;19955;-70
2022/03/23 07:37:50;;;;;;;;;;;21.20;99.90;;;;;;5013040;28;19948;-71
2022/03/23 07:40:17;;;;;;;;;;;21.20;99.90;;;;;;5012627;28;19932;-71
2022/03/23 07:42:43;;;;;;;;;;;21.30;99.90;;;;;;5012655;28;19917;-71
2022/03/23 07:45:10;;;;;;;;;;;21.30;99.90;;;;;;5012352;28;19913;-71
2022/03/23 07:47:38;;;;;;;;;;;21.30;99.90;;;;;;5011933;28;19975;-72
2022/03/23 07:50:05;;;;;;;;;;;21.10;99.90;;;;;;5012575;28;19921;-71
2022/03/23 07:52:32;;;;;;;;;;;20.90;99.90;;;;;;5012680;28;19976;-70
2022/03/23 07:55:02;;;;;;;;;;;20.90;99.90;;;;;;5012441;28;20399;-71
2022/03/23 07:57:29;;;;;;;;;;;20.80;99.90;;;;;;5012009;28;20003;-70
2022/03/23 07:59:55;;;;;;;;;;;20.80;99.90;;;;;;5011073;28;19960;-71
2022/03/23 08:02:23;;;;;;;;;;;20.60;99.90;;;;;;5011270;28;20004;-71
2022/03/23 08:04:50;;;;;;;;;;;20.40;99.90;;;;;;5012574;28;19981;-71
2022/03/23 08:07:17;;;;;;;;;;;20.20;99.90;;;;;;5014209;28;19910;-71
2022/03/23 08:09:45;;;;;;;;;;;20.20;99.90;;;;;;5014429;28;19909;-71
2022/03/23 08:12:12;;;;;;;;;;;20.10;99.90;;;;;;5014121;28;19967;-72
2022/03/23 08:14:39;;;;;;;;;;;20.10;99.90;;;;;;5014130;28;19909;-72
2022/03/23 08:17:05;;;;;;;;;;;20.00;99.90;;;;;;5013276;28;19917;-72
2022/03/23 08:19:32;;;;;;;;;;;20.00;99.90;;;;;;5013854;28;19944;-72
2022/03/23 08:21:59;;;;;;;;;;;19.90;99.90;;;;;;5014006;28;20434;-72
2022/03/23 08:24:25;;;;;;;;;;;19.90;99.90;;;;;;5013682;28;19917;-72
2022/03/23 08:26:53;;;;;;;;;;;20.00;99.90;;;;;;5014136;28;19915;-73
2022/03/23 08:29:20;;;;;;;;;;;19.90;99.90;;;;;;5013894;28;20000;-73
2022/03/23 08:31:47;;;;;;;;;;;19.90;99.90;;;;;;5013266;28;20339;-73
2022/03/23 08:34:14;;;;;;;;;;;19.80;99.90;;;;;;5013762;28;19913;-72
2022/03/23 08:36:40;;;;;;;;;;;19.70;99.90;;;;;;5013945;28;20249;-72
2022/03/23 08:39:07;;;;;;;;;;;19.80;99.90;;;;;;5014006;28;20430;-72
2022/03/23 08:41:34;;;;;;;;;;;19.80;99.90;;;;;;5013686;28;19916;-72
2022/03/23 08:44:01;;;;;;;;;;;19.80;99.90;;;;;;5013606;28;19928;-72
2022/03/23 08:46:28;;;;;;;;;;;19.80;99.90;;;;;;5013030;28;19971;-72
2022/03/23 08:48:54;;;;;;;;;;;19.80;99.90;;;;;;5013775;28;19916;-73
2022/03/23 08:51:21;;;;;;;;;;;19.80;99.90;;;;;;5013738;28;19917;-73
2022/03/23 08:53:48;;;;;;;;;;;19.80;99.90;;;;;;5013623;28;19933;-73
2022/03/23 08:56:14;;;;;;;;;;;19.70;99.90;;;;;;5013485;28;20412;-73
2022/03/23 08:58:47;;;;;;;;;;;19.70;99.90;;;;;;5013161;28;19913;-73
2022/03/23 09:01:15;;;;;;;;;;;19.70;99.90;;;;;;5012960;28;20279;-73
2022/03/23 09:03:42;;;;;;;;;;;19.70;99.90;;;;;;5013448;28;19921;-73
2022/03/23 09:06:10;;;;;;;;;;;19.70;99.90;;;;;;5013419;28;20004;-73
2022/03/23 09:08:37;;;;;;;;;;;19.60;99.90;;;;;;5013575;28;19910;-73
2022/03/23 09:11:04;;;;;;;;;;;19.60;99.90;;;;;;5013541;28;19910;-73
2022/03/23 09:13:31;;;;;;;;;;;19.60;99.90;;;;;;5013419;28;20371;-74
2022/03/23 09:15:57;;;;;;;;;;;19.60;99.90;;;;;;5012986;28;20280;-73
2022/03/23 09:18:26;;;;;;;;;;;19.60;99.90;;;;;;5012904;28;20382;-73
2022/03/23 09:20:53;;;;;;;;;;;19.60;99.90;;;;;;5013460;28;20462;-73
2022/03/23 09:23:19;;;;;;;;;;;19.70;99.90;;;;;;5013320;28;19965;-74
2022/03/23 09:25:46;;;;;;;;;;;19.80;99.90;;;;;;5013211;28;19909;-73
2022/03/23 09:28:13;;;;;;;;;;;19.90;99.90;;;;;;5013182;28;20343;-74
2022/03/23 09:30:39;;;;;;;;;;;20.00;99.90;;;;;;5012773;28;20335;-73
2022/03/23 09:33:07;;;;;;;;;;;20.00;99.90;;;;;;5013036;28;20873;-73
2022/03/23 09:35:33;;;;;;;;;;;20.10;99.90;;;;;;5013371;28;19909;-74
2022/03/23 09:38:03;;;;;;;;;;;20.20;99.90;;;;;;5013210;28;19909;-73
2022/03/23 09:40:31;;;;;;;;;;;20.20;99.90;;;;;;5013126;28;19909;-73
2022/03/23 09:43:09;;;;;;;;;;;20.30;99.90;;;;;;5012917;28;19959;-73
2022/03/23 09:45:46;;;;;;;;;;;20.30;99.90;;;;;;5013196;28;20307;-73
2022/03/23 09:48:17;;;;;;;;;;;20.30;99.90;;;;;;5012926;28;19910;-74
2022/03/23 09:50:50;;;;;;;;;;;20.30;99.90;;;;;;5013140;28;20016;-73
2022/03/23 09:53:17;;;;;;;;;;;20.30;99.90;;;;;;5013300;28;20039;-73
2022/03/23 09:55:44;;;;;;;;;;;20.30;99.90;;;;;;5013128;28;19917;-73
2022/03/23 09:58:11;;;;;;;;;;;20.30;99.90;;;;;;5012695;28;19909;-73
2022/03/23 10:00:39;;;;;;;;;;;20.30;99.90;;;;;;5012937;28;19924;-73
2022/03/23 10:03:16;;;;;;;;;;;20.30;99.90;;;;;;5012877;28;19918;-74
2022/03/23 10:06:00;;;;;;;;;;;20.30;99.90;;;;;;5013207;28;20003;-73
2022/03/23 10:08:45;;;;;;;;;;;20.40;99.90;;;;;;5012825;28;19982;-73
2022/03/23 10:11:29;;;;;;;;;;;20.30;99.90;;;;;;5014283;28;19940;-72
2022/03/23 10:14:14;;;;;;;;;;;20.40;99.90;;;;;;5016485;28;20307;-73
2022/03/23 10:16:59;;;;;;;;;;;20.40;99.90;;;;;;5016501;28;20099;-72
2022/03/23 10:19:25;;;;;;;;;;;20.40;99.90;;;;;;5016386;28;20379;-73
2022/03/23 10:21:52;;;;;;;;;;;20.40;99.90;;;;;;5016454;28;19909;-73
2022/03/23 10:24:19;;;;;;;;;;;20.50;99.90;;;;;;5016171;28;20360;-73
2022/03/23 10:26:49;;;;;;;;;;;20.50;99.90;;;;;;5016385;28;19909;-73
2022/03/23 10:29:24;;;;;;;;;;;20.50;99.90;;;;;;5016651;28;20269;-73
2022/03/23 10:32:04;;;;;;;;;;;20.50;99.90;;;;;;5016228;28;19916;-73
2022/03/23 10:34:41;;;;;;;;;;;20.50;99.90;;;;;;5016160;28;20423;-73
2022/03/23 10:37:07;;;;;;;;;;;20.50;99.90;;;;;;5016101;28;19909;-73
2022/03/23 10:39:34;;;;;;;;;;;20.50;99.90;;;;;;5016150;28;19988;-73
2022/03/23 10:42:21;;;;;;;;;;;20.50;99.90;;;;;;5016117;28;19913;-72
2022/03/23 10:44:49;;;;;;;;;;;20.50;99.90;;;;;;5015870;28;20284;-71
2022/03/23 10:47:24;;;;;;;;;;;20.50;99.90;;;;;;5015968;28;19916;-72
2022/03/23 10:49:50;;;;;;;;;;;20.50;99.90;;;;;;5016108;28;20472;-72
2022/03/23 10:52:18;;;;;;;;;;;20.60;99.90;;;;;;5015687;28;19941;-72
2022/03/23 10:54:54;;;;;;;;;;;20.60;99.90;;;;;;5015872;28;19910;-72
2022/03/23 10:57:21;;;;;;;;;;;20.60;99.90;;;;;;5015794;28;19924;-72
2022/03/23 10:59:47;;;;;;;;;;;20.60;99.90;;;;;;5015749;28;19910;-70
2022/03/23 11:02:16;;;;;;;;;;;20.60;99.90;;;;;;5015751;28;19917;-72
2022/03/23 11:04:46;;;;;;;;;;;20.60;99.90;;;;;;5015187;28;19924;-71
2022/03/23 11:07:26;;;;;;;;;;;20.60;99.90;;;;;;5015618;28;19916;-72
2022/03/23 11:18:11;;;;;;;;;;;20.70;99.90;;;;;;5015561;28;19972;-72
2022/03/23 11:20:51;;;;;;;;;;;20.70;99.90;;;;;;5014593;28;20509;-72
2022/03/23 11:23:19;;;;;;;;;;;20.80;99.90;;;;;;5015081;28;19918;-72
2022/03/23 11:25:48;;;;;;;;;;;20.70;99.90;;;;;;5015299;28;19910;-72
2022/03/23 11:28:15;;;;;;;;;;;20.70;99.90;;;;;;5015057;28;19909;-71
2022/03/23 11:30:43;;;;;;;;;;;20.70;99.90;;;;;;5014854;28;20279;-71
2022/03/23 11:33:10;;;;;;;;;;;20.70;99.90;;;;;;5014662;28;19910;-71
2022/03/23 11:35:38;;;;;;;;;;;20.70;99.90;;;;;;5015007;28;19909;-71
2022/03/23 11:38:06;;;;;;;;;;;20.70;99.90;;;;;;5014863;28;19996;-71
2022/03/23 11:40:33;;;;;;;;;;;20.70;99.90;;;;;;5014948;28;19956;-71
2022/03/23 11:43:00;;;;;;;;;;;20.70;99.90;;;;;;5015608;28;20029;-71
2022/03/23 11:45:26;;;;;;;;;;;20.70;99.90;;;;;;5019955;28;19968;-71
2022/03/23 11:48:02;;;;;;;;;;;20.70;99.90;;;;;;5020790;28;20003;-71
2022/03/23 11:50:28;;;;;;;;;;;20.70;99.90;;;;;;5015233;28;19909;-71
2022/03/23 11:53:13;;;;;;;;;;;20.70;99.90;;;;;;5014859;28;19917;-71
2022/03/23 11:55:45;;;;;;;;;;;20.80;99.90;;;;;;5014691;28;19909;-74
2022/03/23 11:58:17;;;;;;;;;;;20.80;99.90;;;;;;5014636;28;20402;-74
2022/03/23 12:00:46;;;;;;;;;;;20.80;99.90;;;;;;5014661;28;20395;-73
2022/03/23 12:03:16;;;;;;;;;;;20.80;99.90;;;;;;5014002;28;20417;-73
2022/03/23 12:05:50;;;;;;;;;;;20.80;99.90;;;;;;5014437;28;19909;-72
2022/03/23 12:08:48;;;;;;;;;;;20.80;99.90;;;;;;5014105;28;19909;-72
2022/03/23 12:11:34;;;;;;;;;;;20.70;99.90;;;;;;4998468;28;20359;-71
2022/03/23 12:14:02;;;;;;;;;;;20.80;99.90;;;;;;5014492;28;19916;-72
2022/03/23 12:16:46;;;;;;;;;;;20.80;99.90;;;;;;5013999;28;19913;-72
2022/03/23 12:19:19;;;;;;;;;;;20.80;99.90;;;;;;5022952;28;19972;-73
2022/03/23 12:22:06;;;;;;;;;;;20.80;99.90;;;;;;5014355;28;19914;-72
2022/03/23 12:24:46;;;;;;;;;;;20.80;99.90;;;;;;5000204;28;19960;-71
2022/03/23 12:27:35;;;;;;;;;;;20.80;99.90;;;;;;5014261;28;19909;-72
2022/03/23 12:30:08;;;;;;;;;;;20.80;99.90;;;;;;5014315;28;19956;-72
2022/03/23 12:32:38;;;;;;;;;;;20.70;99.90;;;;;;5013001;28;20319;-72
2022/03/23 12:35:05;;;;;;;;;;;20.80;99.90;;;;;;5013562;28;19996;-72
2022/03/23 12:37:39;;;;;;;;;;;20.80;99.90;;;;;;5014137;28;20330;-72
2022/03/23 12:40:07;;;;;;;;;;;20.80;99.90;;;;;;5014271;28;19916;-73
2022/03/23 12:42:34;;;;;;;;;;;20.70;99.90;;;;;;5014065;28;19913;-73
2022/03/23 12:45:04;;;;;;;;;;;20.80;99.90;;;;;;5013907;28;19923;-73
2022/03/23 12:47:31;;;;;;;;;;;20.70;99.90;;;;;;5013961;28;19932;-73
2022/03/23 12:58:24;;;;;;;;;;;20.00;99.90;;;;;;5013966;28;19932;-72
2022/03/23 13:00:52;;;;;;;;;;;19.90;99.90;;;;;;5012368;28;20275;-72
2022/03/23 13:03:18;;;;;;;;;;;19.90;99.90;;;;;;5013633;28;19913;-72
2022/03/23 13:06:00;;;;;;;;;;;20.00;99.90;;;;;;5013796;28;19915;-72
2022/03/23 13:08:38;;;;;;;;;;;20.00;99.90;;;;;;5013492;28;19914;-72
2022/03/23 13:11:07;;;;;;;;;;;20.10;99.90;;;;;;5013764;28;19964;-72
2022/03/23 13:13:35;;;;;;;;;;;20.00;99.90;;;;;;5013571;28;19910;-71
2022/03/23 13:16:08;;;;;;;;;;;20.10;99.90;;;;;;5013535;28;19955;-72
2022/03/23 13:18:38;;;;;;;;;;;20.10;99.90;;;;;;5013432;28;19914;-72
2022/03/23 13:21:11;;;;;;;;;;;20.20;99.90;;;;;;5013561;28;19910;-72
2022/03/23 13:23:44;;;;;;;;;;;20.20;99.90;;;;;;5013414;28;19917;-72
2022/03/23 13:26:12;;;;;;;;;;;20.20;99.90;;;;;;5013428;28;19917;-73
2022/03/23 13:28:42;;;;;;;;;;;20.40;99.90;;;;;;5013345;28;19929;-70
2022/03/23 13:31:09;;;;;;;;;;;20.40;99.90;;;;;;5013338;28;19936;-70
2022/03/23 13:33:36;;;;;;;;;;;20.40;99.90;;;;;;5013308;28;19917;-73
2022/03/23 13:36:04;;;;;;;;;;;20.40;99.90;;;;;;5013489;28;19910;-71
2022/03/23 13:38:35;;;;;;;;;;;20.40;99.90;;;;;;5013166;28;19913;-70
2022/03/23 13:43:51;;;;;;;;;;;20.40;99.90;;;;;;5013500;28;19964;-71
2022/03/23 13:46:17;;;;;;;;;;;20.50;99.90;;;;;;5016004;28;19988;-71
2022/03/23 13:48:44;;;;;;;;;;;20.50;99.90;;;;;;5017134;28;19910;-71
2022/03/23 13:51:11;;;;;;;;;;;20.50;99.90;;;;;;5017115;28;19917;-70
2022/03/23 13:53:37;;;;;;;;;;;20.50;99.90;;;;;;5017070;28;19917;-70
2022/03/23 13:56:05;;;;;;;;;;;20.50;99.90;;;;;;5017003;28;19968;-70
2022/03/23 13:58:32;;;;;;;;;;;20.60;99.90;;;;;;5016837;28;19933;-71
2022/03/23 14:01:02;;;;;;;;;;;20.60;99.90;;;;;;5016729;28;19992;-73
2022/03/23 14:03:30;;;;;;;;;;;20.60;99.90;;;;;;5016838;28;19917;-71
2022/03/23 14:06:04;;;;;;;;;;;20.60;99.90;;;;;;5016910;28;19963;-71
2022/03/23 14:08:35;;;;;;;;;;;20.60;99.90;;;;;;5016628;28;20140;-71
2022/03/23 14:11:03;;;;;;;;;;;20.60;99.90;;;;;;5016925;28;19979;-72
2022/03/23 14:13:30;;;;;;;;;;;20.60;99.90;;;;;;5016711;28;19910;-71
2022/03/23 14:15:57;;;;;;;;;;;20.60;99.90;;;;;;5016658;28;20000;-72
2022/03/23 14:18:25;;;;;;;;;;;20.70;99.90;;;;;;5016339;28;19958;-71
2022/03/23 14:20:53;;;;;;;;;;;20.70;99.90;;;;;;5016708;28;19921;-72
2022/03/23 14:23:26;;;;;;;;;;;20.70;99.90;;;;;;5016465;28;20356;-72
2022/03/23 14:25:53;;;;;;;;;;;20.70;99.90;;;;;;5016459;28;19909;-72
2022/03/23 14:28:25;;;;;;;;;;;20.70;99.90;;;;;;5016172;28;19910;-72
2022/03/23 14:31:02;;;;;;;;;;;20.70;99.90;;;;;;5016350;28;20259;-71
2022/03/23 14:33:28;;;;;;;;;;;20.60;99.90;;;;;;5016577;28;19932;-72
2022/03/23 14:35:55;;;;;;;;;;;20.70;99.90;;;;;;5016410;28;19979;-72
2022/03/23 14:38:25;;;;;;;;;;;20.70;99.90;;;;;;5016152;28;19924;-73
2022/03/23 14:40:53;;;;;;;;;;;20.70;99.90;;;;;;5016387;28;20264;-72
2022/03/23 14:43:36;;;;;;;;;;;20.70;99.90;;;;;;5016251;28;19917;-72
2022/03/23 14:46:20;;;;;;;;;;;20.70;99.90;;;;;;5016058;28;19909;-72
2022/03/23 14:48:59;;;;;;;;;;;20.70;99.90;;;;;;5016211;28;20011;-72
2022/03/23 14:51:26;;;;;;;;;;;20.70;99.90;;;;;;5016050;28;19917;-72
2022/03/23 14:53:53;;;;;;;;;;;20.80;99.90;;;;;;5016084;28;19910;-72
2022/03/23 14:56:20;;;;;;;;;;;20.70;99.90;;;;;;5015258;28;19910;-72
2022/03/23 14:58:46;;;;;;;;;;;20.70;99.90;;;;;;5015972;28;19910;-72